Time;durP1;ratioP1;P1;durP2;ratioP2;P2;SDS_P1;SDS_P2;PMS_P1;PMS_P2;Temp;Humidity;BMP_temperature;BMP_pressure;BME280_temperature;BME280_humidity;BME280_pressure;Samples;Min_cycle;Max_cycle;Signal;HPM_P1;HPM_P2
2021/09/09 00:00:24;;;;;;;;;;;;;;;;;;10313909;28;19917;-63
2021/09/09 00:05:22;;;;;;;;;;;;;;;;;;10295585;28;19963;-56
2021/09/09 00:10:21;;;;;;;;;;;;;;;;;;10313993;28;19913;-56
2021/09/09 00:15:19;;;;;;;;;;;;;;;;;;10312752;28;19921;-61
2021/09/09 00:20:16;;;;;;;;;;;;;;;;;;10315642;28;20397;-61
2021/09/09 00:25:14;;;;;;;;;;;;;;;;;;10310692;28;19912;-59
2021/09/09 00:30:12;;;;;;;;;;;;;;;;;;10318582;28;19995;-61
2021/09/09 00:35:12;;;;;;;;;;;;;;;;;;10331542;28;20305;-58
2021/09/09 00:40:10;;;;;;;;;;;;;;;;;;10327261;28;20011;-63
2021/09/09 00:45:08;;;;;;;;;;;;;;;;;;10320498;28;20011;-61
2021/09/09 00:50:05;;;;;;;;;;;;;;;;;;10327871;28;20354;-61
2021/09/09 00:55:02;;;;;;;;;;;;;;;;;;10329215;28;19921;-61
2021/09/09 01:00:00;;;;;;;;;;;;;;;;;;10308517;28;19932;-59
2021/09/09 01:04:57;;;;;;;;;;;;;;;;;;10318047;28;19925;-58
2021/09/09 01:09:54;;;;;;;;;;;;;;;;;;10295022;28;20523;-56
2021/09/09 01:14:52;;;;;;;;;;;;;;;;;;10330065;28;19920;-58
2021/09/09 01:19:49;;;;;;;;;;;;;;;;;;10333362;28;20371;-60
2021/09/09 01:24:46;;;;;;;;;;;;;;;;;;10326911;28;19912;-60
2021/09/09 01:29:43;;;;;;;;;;;;;;;;;;10334499;28;19916;-58
2021/09/09 01:34:41;;;;;;;;;;;;;;;;;;10337368;28;19919;-57
2021/09/09 01:39:38;;;;;;;;;;;;;;;;;;10326567;28;20004;-58
2021/09/09 01:44:35;;;;;;;;;;;;;;;;;;10315575;28;20369;-62
2021/09/09 01:49:33;;;;;;;;;;;;;;;;;;10325714;28;19912;-58
2021/09/09 01:54:30;;;;;;;;;;;;;;;;;;10333391;28;19963;-60
2021/09/09 01:59:27;;;;;;;;;;;;;;;;;;10310332;28;20007;-58
2021/09/09 02:04:28;;;;;;;;;;;;;;;;;;10320411;28;20008;-59
2021/09/09 02:09:25;;;;;;;;;;;;;;;;;;10319109;28;20291;-58
2021/09/09 02:14:23;;;;;;;;;;;;;;;;;;10309343;28;20333;-57
2021/09/09 02:19:20;;;;;;;;;;;;;;;;;;10318692;28;19921;-58
2021/09/09 02:24:17;;;;;;;;;;;;;;;;;;10329772;28;19927;-57
2021/09/09 02:29:15;;;;;;;;;;;;;;;;;;10319390;28;19920;-56
2021/09/09 02:34:12;;;;;;;;;;;;;;;;;;10319622;28;20331;-58
2021/09/09 02:39:09;;;;;;;;;;;;;;;;;;10305674;28;19917;-58
2021/09/09 02:44:06;;;;;;;;;;;;;;;;;;10325948;28;19968;-58
2021/09/09 02:49:04;;;;;;;;;;;;;;;;;;10317537;28;20216;-55
2021/09/09 02:54:01;;;;;;;;;;;;;;;;;;10318584;28;20023;-55
2021/09/09 02:58:58;;;;;;;;;;;;;;;;;;10317686;28;19920;-58
2021/09/09 03:03:56;;;;;;;;;;;;;;;;;;10320437;28;19913;-58
2021/09/09 03:08:53;;;;;;;;;;;;;;;;;;10325095;28;20367;-55
2021/09/09 03:13:50;;;;;;;;;;;;;;;;;;10302739;28;19921;-57
2021/09/09 03:18:48;;;;;;;;;;;;;;;;;;10308480;28;19916;-57
2021/09/09 03:23:45;;;;;;;;;;;;;;;;;;10327434;28;20318;-58
2021/09/09 03:28:42;;;;;;;;;;;;;;;;;;10324532;28;20445;-58
2021/09/09 03:33:39;;;;;;;;;;;;;;;;;;10323520;28;19916;-54
2021/09/09 03:38:37;;;;;;;;;;;;;;;;;;10301193;28;19916;-57
2021/09/09 03:43:34;;;;;;;;;;;;;;;;;;10296588;28;19919;-56
2021/09/09 03:48:31;;;;;;;;;;;;;;;;;;10320018;28;19923;-59
2021/09/09 03:53:29;;;;;;;;;;;;;;;;;;10304755;28;19971;-58
2021/09/09 03:58:26;;;;;;;;;;;;;;;;;;10292165;28;19913;-59
2021/09/09 04:03:23;;;;;;;;;;;;;;;;;;10294759;28;19913;-58
2021/09/09 04:08:21;;;;;;;;;;;;;;;;;;10291161;28;19913;-59
2021/09/09 04:13:18;;;;;;;;;;;;;;;;;;10304969;28;20003;-57
2021/09/09 04:18:15;;;;;;;;;;;;;;;;;;10308925;28;19917;-60
2021/09/09 04:23:12;;;;;;;;;;;;;;;;;;10319544;28;19913;-58
2021/09/09 04:28:10;;;;;;;;;;;;;;;;;;10309697;28;21026;-59
2021/09/09 04:33:07;;;;;;;;;;;;;;;;;;10323830;28;19929;-58
2021/09/09 04:38:04;;;;;;;;;;;;;;;;;;10290790;28;20026;-60
2021/09/09 04:43:02;;;;;;;;;;;;;;;;;;10296198;28;19913;-58
2021/09/09 04:48:00;;;;;;;;;;;;;;;;;;10320369;28;19944;-62
2021/09/09 04:52:57;;;;;;;;;;;;;;;;;;10317916;28;19924;-60
2021/09/09 04:57:54;;;;;;;;;;;;;;;;;;10312249;28;19931;-60
2021/09/09 05:02:52;;;;;;;;;;;;;;;;;;10305173;28;20784;-61
2021/09/09 05:07:49;;;;;;;;;;;;;;;;;;10307117;28;19912;-62
2021/09/09 05:12:47;;;;;;;;;;;;;;;;;;10324755;28;19916;-61
2021/09/09 05:17:44;;;;;;;;;;;;;;;;;;10327116;28;19956;-59
2021/09/09 05:22:41;;;;;;;;;;;;;;;;;;10315863;28;19917;-62
2021/09/09 05:27:39;;;;;;;;;;;;;;;;;;10320295;28;19917;-58
2021/09/09 05:32:36;;;;;;;;;;;;;;;;;;10325903;28;20035;-58
2021/09/09 05:37:33;;;;;;;;;;;;;;;;;;10321528;28;20306;-56
2021/09/09 05:42:31;;;;;;;;;;;;;;;;;;10309290;28;19925;-57
2021/09/09 05:47:28;;;;;;;;;;;;;;;;;;10302219;28;19917;-56
2021/09/09 05:52:26;;;;;;;;;;;;;;;;;;10311037;28;19923;-57
2021/09/09 05:57:23;;;;;;;;;;;;;;;;;;10308787;28;20406;-56
2021/09/09 06:02:21;;;;;;;;;;;;;;;;;;10329824;28;19917;-58
2021/09/09 06:07:18;;;;;;;;;;;;;;;;;;10333682;28;19921;-58
2021/09/09 06:12:16;;;;;;;;;;;;;;;;;;10326794;28;20431;-55
2021/09/09 06:17:13;;;;;;;;;;;;;;;;;;10322609;28;19952;-58
2021/09/09 06:22:10;;;;;;;;;;;;;;;;;;10322077;28;19924;-58
2021/09/09 06:27:08;;;;;;;;;;;;;;;;;;10323778;28;19939;-59
2021/09/09 06:32:05;;;;;;;;;;;;;;;;;;10317085;28;19923;-58
2021/09/09 06:37:02;;;;;;;;;;;;;;;;;;10301047;28;20405;-59
2021/09/09 06:41:59;;;;;;;;;;;;;;;;;;10323176;28;19917;-59
2021/09/09 06:46:57;;;;;;;;;;;;;;;;;;10310029;28;19913;-59
2021/09/09 06:51:54;;;;;;;;;;;;;;;;;;10314816;28;19921;-59
2021/09/09 06:56:51;;;;;;;;;;;;;;;;;;10327485;28;20003;-59
2021/09/09 07:01:49;;;;;;;;;;;;;;;;;;10309142;28;20087;-59
2021/09/09 07:06:46;;;;;;;;;;;;;;;;;;10323448;28;19913;-59
2021/09/09 07:11:43;;;;;;;;;;;;;;;;;;10322053;28;19921;-60
2021/09/09 07:16:40;;;;;;;;;;;;;;;;;;10280204;28;20007;-59
2021/09/09 07:21:38;;;;;;;;;;;;;;;;;;10330762;28;19920;-59
2021/09/09 07:26:35;;;;;;;;;;;;;;;;;;10308125;28;19919;-60
2021/09/09 07:31:33;;;;;;;;;;;;;;;;;;10312604;28;19944;-60
2021/09/09 07:36:30;;;;;;;;;;;;;;;;;;10319493;28;19913;-60
2021/09/09 07:41:27;;;;;;;;;;;;;;;;;;10324652;28;20413;-60
2021/09/09 07:46:26;;;;;;;;;;;;;;;;;;10328837;28;20372;-60
2021/09/09 07:51:24;;;;;;;;;;;;;;;;;;10317940;28;19925;-60
2021/09/09 07:56:21;;;;;;;;;;;;;;;;;;10318290;28;20355;-60
2021/09/09 08:01:18;;;;;;;;;;;;;;;;;;10326930;28;19919;-60
2021/09/09 08:06:15;;;;;;;;;;;;;;;;;;10322167;28;20991;-60
2021/09/09 08:11:13;;;;;;;;;;;;;;;;;;10335500;28;19916;-60
2021/09/09 08:16:10;;;;;;;;;;;;;;;;;;10315361;28;19916;-60
2021/09/09 08:21:07;;;;;;;;;;;;;;;;;;10326163;28;19913;-60
2021/09/09 08:26:05;;;;;;;;;;;;;;;;;;10320095;28;20035;-60
2021/09/09 08:31:02;;;;;;;;;;;;;;;;;;10323185;28;20003;-60
2021/09/09 08:35:59;;;;;;;;;;;;;;;;;;10321742;28;19960;-60
2021/09/09 08:40:56;;;;;;;;;;;;;;;;;;10307400;28;20272;-60
2021/09/09 08:45:54;;;;;;;;;;;;;;;;;;10319234;28;19920;-60
2021/09/09 08:50:51;;;;;;;;;;;;;;;;;;10327300;28;19920;-61
2021/09/09 08:55:49;;;;;;;;;;;;;;;;;;10326049;28;19916;-61
2021/09/09 09:00:46;;;;;;;;;;;;;;;;;;10316771;28;20367;-61
2021/09/09 09:05:44;;;;;;;;;;;;;;;;;;10309731;28;19928;-61
2021/09/09 09:10:41;;;;;;;;;;;;;;;;;;10310399;28;20282;-61
2021/09/09 09:15:38;;;;;;;;;;;;;;;;;;10319825;28;19924;-61
2021/09/09 09:20:35;;;;;;;;;;;;;;;;;;10325390;28;20007;-61
2021/09/09 09:25:33;;;;;;;;;;;;;;;;;;10310933;28;20343;-60
2021/09/09 09:30:30;;;;;;;;;;;;;;;;;;10330262;28;20160;-61
2021/09/09 09:35:27;;;;;;;;;;;;;;;;;;10331691;28;19917;-61
2021/09/09 09:40:25;;;;;;;;;;;;;;;;;;10328909;28;20298;-61
2021/09/09 09:45:22;;;;;;;;;;;;;;;;;;10323121;28;19913;-61
2021/09/09 09:50:19;;;;;;;;;;;;;;;;;;10319829;28;19990;-61
2021/09/09 09:55:17;;;;;;;;;;;;;;;;;;10328572;28;20015;-61
2021/09/09 10:00:14;;;;;;;;;;;;;;;;;;10330760;28;19938;-61
2021/09/09 10:05:11;;;;;;;;;;;;;;;;;;10332964;28;20337;-62
2021/09/09 10:10:09;;;;;;;;;;;;;;;;;;10300479;28;19912;-61
2021/09/09 10:15:06;;;;;;;;;;;;;;;;;;10334032;28;19924;-61
2021/09/09 10:20:04;;;;;;;;;;;;;;;;;;10298153;28;19921;-61
2021/09/09 10:25:01;;;;;;;;;;;;;;;;;;10318004;28;19908;-62
2021/09/09 10:30:03;;;;;;;;;;;;;;;;;;10314137;28;19913;-62
2021/09/09 10:35:01;;;;;;;;;;;;;;;;;;10288021;28;19920;-61
2021/09/09 10:39:58;;;;;;;;;;;;;;;;;;10318007;28;19923;-61
2021/09/09 10:44:55;;;;;;;;;;;;;;;;;;10316439;22;19927;-62
2021/09/09 10:49:52;;;;;;;;;;;;;;;;;;10275133;28;20283;-63
2021/09/09 10:54:50;;;;;;;;;;;;;;;;;;10263039;28;20016;-64
2021/09/09 10:59:47;;;;;;;;;;;;;;;;;;10270939;28;19913;-63
2021/09/09 11:04:45;;;;;;;;;;;;;;;;;;10278609;28;20397;-65
2021/09/09 11:09:42;;;;;;;;;;;;;;;;;;10262151;28;19925;-63
2021/09/09 11:14:39;;;;;;;;;;;;;;;;;;10276190;28;20345;-64
2021/09/09 11:19:37;;;;;;;;;;;;;;;;;;10281671;28;19952;-64
2021/09/09 11:24:35;;;;;;;;;;;;;;;;;;10248954;28;20020;-66
2021/09/09 11:29:32;;;;;;;;;;;;;;;;;;10264890;28;19949;-65
2021/09/09 11:34:33;;;;;;;;;;;;;;;;;;10265996;28;19921;-66
2021/09/09 11:39:32;;;;;;;;;;;;;;;;;;10265674;28;19913;-66
2021/09/09 11:44:29;;;;;;;;;;;;;;;;;;10264849;28;20433;-67
2021/09/09 11:49:27;;;;;;;;;;;;;;;;;;10264467;28;20339;-67
2021/09/09 11:54:24;;;;;;;;;;;;;;;;;;10262694;28;19918;-66
2021/09/09 11:59:21;;;;;;;;;;;;;;;;;;10258033;28;20394;-65
2021/09/09 12:04:19;;;;;;;;;;;;;;;;;;10260677;28;20453;-66
2021/09/09 12:09:16;;;;;;;;;;;;;;;;;;10264289;28;19959;-64
2021/09/09 12:14:13;;;;;;;;;;;;;;;;;;10263918;28;19963;-66
2021/09/09 12:19:11;;;;;;;;;;;;;;;;;;10245765;28;19963;-67
2021/09/09 12:24:11;;;;;;;;;;;;;;;;;;10263208;28;20397;-67
2021/09/09 12:29:09;;;;;;;;;;;;;;;;;;10263112;28;19921;-66
2021/09/09 12:34:06;;;;;;;;;;;;;;;;;;10263335;28;20001;-67
2021/09/09 12:39:03;;;;;;;;;;;;;;;;;;10263117;28;19913;-66
2021/09/09 12:44:02;;;;;;;;;;;;;;;;;;10262536;28;19928;-67
2021/09/09 12:49:03;;;;;;;;;;;;;;;;;;10257407;28;19967;-65
2021/09/09 12:54:01;;;;;;;;;;;;;;;;;;10243875;28;20008;-65
2021/09/09 12:58:59;;;;;;;;;;;;;;;;;;10258847;28;20000;-66
2021/09/09 13:03:56;;;;;;;;;;;;;;;;;;10260761;28;19918;-65
2021/09/09 13:08:53;;;;;;;;;;;;;;;;;;10269171;28;20276;-67
2021/09/09 13:13:51;;;;;;;;;;;;;;;;;;10270220;28;20387;-66
2021/09/09 13:18:48;;;;;;;;;;;;;;;;;;10269960;28;19950;-67
2021/09/09 13:23:45;;;;;;;;;;;;;;;;;;10269279;28;19917;-66
2021/09/09 13:28:43;;;;;;;;;;;;;;;;;;10268633;28;19959;-67
2021/09/09 13:33:41;;;;;;;;;;;;;;;;;;10269291;28;19984;-67
2021/09/09 13:38:38;;;;;;;;;;;;;;;;;;10266273;28;20291;-66
2021/09/09 13:43:36;;;;;;;;;;;;;;;;;;10267234;28;19980;-66
2021/09/09 13:48:34;;;;;;;;;;;;;;;;;;10268572;28;19980;-67
2021/09/09 13:53:31;;;;;;;;;;;;;;;;;;10305264;23;19921;-68
2021/09/09 13:58:28;;;;;;;;;;;;;;;;;;10348333;28;19912;-66
2021/09/09 14:03:26;;;;;;;;;;;;;;;;;;10349186;28;19920;-66
2021/09/09 14:08:23;;;;;;;;;;;;;;;;;;10339147;28;20307;-66
2021/09/09 14:13:20;;;;;;;;;;;;;;;;;;10340265;28;19920;-67
2021/09/09 14:18:17;;;;;;;;;;;;;;;;;;10365741;28;19917;-67
2021/09/09 14:23:15;;;;;;;;;;;;;;;;;;10327854;28;19925;-66
2021/09/09 14:28:12;;;;;;;;;;;;;;;;;;10356461;28;19938;-66
2021/09/09 14:33:09;;;;;;;;;;;;;;;;;;10344898;28;20347;-67
2021/09/09 14:38:07;;;;;;;;;;;;;;;;;;10366253;28;20008;-66
2021/09/09 14:43:04;;;;;;;;;;;;;;;;;;10353505;28;19916;-66
2021/09/09 14:48:04;;;;;;;;;;;;;;;;;;10357647;28;20067;-67
2021/09/09 14:53:01;;;;;;;;;;;;;;;;;;10350788;28;20373;-65
2021/09/09 14:57:58;;;;;;;;;;;;;;;;;;10352591;28;19912;-67
2021/09/09 15:02:55;;;;;;;;;;;;;;;;;;10343067;28;19924;-68
2021/09/09 15:07:53;;;;;;;;;;;;;;;;;;10327428;28;19921;-67
2021/09/09 15:12:50;;;;;;;;;;;;;;;;;;10347144;28;19917;-67
2021/09/09 15:17:48;;;;;;;;;;;;;;;;;;10371271;28;19916;-67
2021/09/09 15:22:46;;;;;;;;;;;;;;;;;;10332012;28;19921;-66
2021/09/09 15:27:44;;;;;;;;;;;;;;;;;;10363056;28;19916;-67
2021/09/09 15:32:41;;;;;;;;;;;;;;;;;;10352613;28;20042;-67
2021/09/09 15:37:38;;;;;;;;;;;;;;;;;;10338453;28;19927;-68
2021/09/09 15:42:36;;;;;;;;;;;;;;;;;;10336816;28;19928;-67
2021/09/09 15:47:33;;;;;;;;;;;;;;;;;;10345660;28;19921;-67
2021/09/09 15:52:30;;;;;;;;;;;;;;;;;;10350894;28;19967;-67
2021/09/09 15:57:27;;;;;;;;;;;;;;;;;;10347278;28;19948;-67
2021/09/09 16:02:25;;;;;;;;;;;;;;;;;;10348726;28;19975;-67
2021/09/09 16:07:22;;;;;;;;;;;;;;;;;;10328095;28;20289;-67
2021/09/09 16:12:19;;;;;;;;;;;;;;;;;;10329593;28;19913;-67
2021/09/09 16:17:22;;;;;;;;;;;;;;;;;;10315407;28;19913;-68
2021/09/09 16:22:19;;;;;;;;;;;;;;;;;;10322856;28;19956;-69
2021/09/09 16:27:17;;;;;;;;;;;;;;;;;;10360841;28;21032;-66
2021/09/09 16:32:14;;;;;;;;;;;;;;;;;;10333642;28;19913;-66
2021/09/09 16:37:11;;;;;;;;;;;;;;;;;;10342580;28;19928;-68
2021/09/09 16:42:09;;;;;;;;;;;;;;;;;;10361419;28;20274;-67
2021/09/09 16:47:06;;;;;;;;;;;;;;;;;;10353871;28;20302;-67
2021/09/09 16:52:03;;;;;;;;;;;;;;;;;;10354962;28;19923;-69
2021/09/09 16:57:01;;;;;;;;;;;;;;;;;;10351312;28;19930;-69
2021/09/09 17:01:58;;;;;;;;;;;;;;;;;;10363511;28;20321;-67
2021/09/09 17:06:55;;;;;;;;;;;;;;;;;;10337068;28;19919;-67
2021/09/09 17:11:53;;;;;;;;;;;;;;;;;;10312737;28;19916;-67
2021/09/09 17:16:50;;;;;;;;;;;;;;;;;;10334449;28;19912;-69
2021/09/09 17:21:47;;;;;;;;;;;;;;;;;;10356629;28;20296;-65
2021/09/09 17:26:44;;;;;;;;;;;;;;;;;;10357673;28;20289;-66
2021/09/09 17:31:42;;;;;;;;;;;;;;;;;;10350406;28;19919;-66
2021/09/09 17:36:39;;;;;;;;;;;;;;;;;;10347365;28;19920;-67
2021/09/09 17:41:36;;;;;;;;;;;;;;;;;;10374291;28;20022;-66
2021/09/09 17:46:33;;;;;;;;;;;;;;;;;;10397836;28;19943;-63
2021/09/09 17:51:31;;;;;;;;;;;;;;;;;;10399937;28;19973;-67
2021/09/09 17:56:28;;;;;;;;;;;;;;;;;;10398129;28;19927;-65
2021/09/09 18:01:25;;;;;;;;;;;;;;;;;;10396464;28;19938;-68
2021/09/09 18:06:23;;;;;;;;;;;;;;;;;;10385549;28;19919;-67
2021/09/09 18:11:22;;;;;;;;;;;;;;;;;;10380450;28;20347;-66
2021/09/09 18:16:19;;;;;;;;;;;;;;;;;;10396157;28;20385;-65
2021/09/09 18:21:16;;;;;;;;;;;;;;;;;;10400366;28;19931;-65
2021/09/09 18:26:14;;;;;;;;;;;;;;;;;;10399039;28;19920;-65
2021/09/09 18:31:11;;;;;;;;;;;;;;;;;;10400525;28;20333;-66
2021/09/09 18:36:08;;;;;;;;;;;;;;;;;;10403134;28;19920;-66
2021/09/09 18:41:05;;;;;;;;;;;;;;;;;;10393791;28;19964;-67
2021/09/09 18:46:03;;;;;;;;;;;;;;;;;;10394150;28;19967;-66
2021/09/09 18:51:00;;;;;;;;;;;;;;;;;;10389470;28;20330;-66
2021/09/09 18:55:57;;;;;;;;;;;;;;;;;;10398196;28;19919;-67
2021/09/09 19:00:54;;;;;;;;;;;;;;;;;;10385382;28;19926;-66
2021/09/09 19:05:54;;;;;;;;;;;;;;;;;;10387831;28;19912;-65
2021/09/09 19:10:52;;;;;;;;;;;;;;;;;;10372266;28;19927;-67
2021/09/09 19:15:49;;;;;;;;;;;;;;;;;;10396430;28;19920;-65
2021/09/09 19:20:47;;;;;;;;;;;;;;;;;;10401645;28;19935;-67
2021/09/09 19:25:44;;;;;;;;;;;;;;;;;;10391506;28;19931;-66
2021/09/09 19:30:42;;;;;;;;;;;;;;;;;;10400688;28;19927;-68
2021/09/09 19:35:40;;;;;;;;;;;;;;;;;;10367626;28;20408;-65
2021/09/09 19:40:37;;;;;;;;;;;;;;;;;;10395298;28;19921;-65
2021/09/09 19:45:34;;;;;;;;;;;;;;;;;;10395133;28;19948;-67
2021/09/09 19:50:31;;;;;;;;;;;;;;;;;;10379599;28;20259;-66
2021/09/09 19:55:32;;;;;;;;;;;;;;;;;;10371511;28;19948;-66
2021/09/09 20:00:29;;;;;;;;;;;;;;;;;;10389774;28;20002;-67
2021/09/09 20:05:26;;;;;;;;;;;;;;;;;;10382320;28;19940;-65
2021/09/09 20:10:23;;;;;;;;;;;;;;;;;;10394070;28;19912;-66
2021/09/09 20:15:21;;;;;;;;;;;;;;;;;;10382787;28;19916;-67
2021/09/09 20:20:18;;;;;;;;;;;;;;;;;;10392643;28;19912;-66
2021/09/09 20:25:15;;;;;;;;;;;;;;;;;;10375386;28;20042;-67
2021/09/09 20:30:14;;;;;;;;;;;;;;;;;;10371132;28;20289;-66
2021/09/09 20:35:11;;;;;;;;;;;;;;;;;;10395747;28;20396;-67
2021/09/09 20:40:08;;;;;;;;;;;;;;;;;;10366086;28;19968;-66
2021/09/09 20:45:05;;;;;;;;;;;;;;;;;;10377385;28;19916;-66
2021/09/09 20:50:03;;;;;;;;;;;;;;;;;;10382578;28;19983;-67
2021/09/09 20:55:00;;;;;;;;;;;;;;;;;;10392080;28;19920;-66
2021/09/09 20:59:57;;;;;;;;;;;;;;;;;;10369075;28;20359;-66
2021/09/09 21:04:54;;;;;;;;;;;;;;;;;;10362636;28;19969;-66
2021/09/09 21:09:52;;;;;;;;;;;;;;;;;;10386589;28;19950;-66
2021/09/09 21:14:49;;;;;;;;;;;;;;;;;;10395414;28;19912;-66
2021/09/09 21:19:46;;;;;;;;;;;;;;;;;;10366983;28;19922;-66
2021/09/09 21:24:43;;;;;;;;;;;;;;;;;;10387485;28;19957;-67
2021/09/09 21:29:41;;;;;;;;;;;;;;;;;;10385090;28;19912;-66
2021/09/09 21:34:38;;;;;;;;;;;;;;;;;;10384501;28;19912;-64
2021/09/09 21:39:35;;;;;;;;;;;;;;;;;;10398670;28;20374;-66
2021/09/09 21:44:33;;;;;;;;;;;;;;;;;;10402331;28;19950;-65
2021/09/09 21:49:30;;;;;;;;;;;;;;;;;;10389008;28;19920;-66
2021/09/09 21:54:27;;;;;;;;;;;;;;;;;;10382064;28;19916;-65
2021/09/09 21:59:25;;;;;;;;;;;;;;;;;;10369915;28;20452;-68
2021/09/09 22:04:23;;;;;;;;;;;;;;;;;;10395525;28;20006;-69
2021/09/09 22:09:20;;;;;;;;;;;;;;;;;;10364719;28;19912;-66
2021/09/09 22:14:18;;;;;;;;;;;;;;;;;;10403665;28;19931;-70
2021/09/09 22:19:15;;;;;;;;;;;;;;;;;;10389307;28;19912;-67
2021/09/09 22:24:12;;;;;;;;;;;;;;;;;;10385730;28;19924;-68
2021/09/09 22:29:09;;;;;;;;;;;;;;;;;;10379364;28;20388;-67
2021/09/09 22:34:07;;;;;;;;;;;;;;;;;;10404207;28;20003;-70
2021/09/09 22:39:04;;;;;;;;;;;;;;;;;;10396782;28;19915;-67
2021/09/09 22:44:01;;;;;;;;;;;;;;;;;;10404713;28;20366;-69
2021/09/09 22:48:58;;;;;;;;;;;;;;;;;;10385102;28;20331;-66
2021/09/09 22:53:56;;;;;;;;;;;;;;;;;;10385606;28;20394;-68
2021/09/09 22:58:53;;;;;;;;;;;;;;;;;;10382934;28;19938;-68
2021/09/09 23:03:50;;;;;;;;;;;;;;;;;;10397416;28;19931;-68
2021/09/09 23:08:48;;;;;;;;;;;;;;;;;;10385065;28;19924;-67
2021/09/09 23:13:45;;;;;;;;;;;;;;;;;;10384430;28;20023;-68
2021/09/09 23:18:42;;;;;;;;;;;;;;;;;;10400502;28;19919;-67
2021/09/09 23:23:39;;;;;;;;;;;;;;;;;;10379001;28;19974;-67
2021/09/09 23:28:37;;;;;;;;;;;;;;;;;;10396324;28;19995;-68
2021/09/09 23:33:34;;;;;;;;;;;;;;;;;;10387808;28;19916;-67
2021/09/09 23:38:32;;;;;;;;;;;;;;;;;;10372350;28;19920;-68
2021/09/09 23:43:29;;;;;;;;;;;;;;;;;;10373614;28;19930;-67
2021/09/09 23:48:26;;;;;;;;;;;;;;;;;;10383069;28;19920;-66
2021/09/09 23:53:24;;;;;;;;;;;;;;;;;;10400274;28;19916;-67
2021/09/09 23:58:21;;;;;;;;;;;;;;;;;;10394781;28;19965;-68
